Time;durP1;ratioP1;P1;durP2;ratioP2;P2;SDS_P1;SDS_P2;PMS_P1;PMS_P2;Temp;Humidity;BMP_temperature;BMP_pressure;BME280_temperature;BME280_humidity;BME280_pressure;Samples;Min_cycle;Max_cycle;Signal;HPM_P1;HPM_P2
2023/07/28 00:01:42;;;;;;;3.53;2.08;;;20.00;99.90;;;;;;4067856;29;20052;-51
2023/07/28 00:03:44;;;;;;;4.60;2.25;;;19.90;99.90;;;;;;4070831;29;20127;-52
2023/07/28 00:05:47;;;;;;;3.47;2.38;;;19.90;99.90;;;;;;4084090;29;20052;-51
2023/07/28 00:07:49;;;;;;;3.65;2.33;;;19.90;99.90;;;;;;4062585;29;20052;-51
2023/07/28 00:09:51;;;;;;;5.05;1.85;;;20.00;99.90;;;;;;4074825;29;20052;-51
2023/07/28 00:11:55;;;;;;;2.88;2.45;;;19.90;99.90;;;;;;4083640;29;20083;-51
2023/07/28 00:13:57;;;;;;;2.80;2.00;;;19.90;99.90;;;;;;4072187;29;20614;-51
2023/07/28 00:15:59;;;;;;;4.18;1.95;;;19.90;99.90;;;;;;4083132;29;20048;-51
2023/07/28 00:18:01;;;;;;;4.43;2.22;;;19.90;99.90;;;;;;4080351;29;20063;-51
2023/07/28 00:20:05;;;;;;;3.25;2.15;;;19.90;99.90;;;;;;4077127;29;20055;-51
2023/07/28 00:22:07;;;;;;;3.58;2.10;;;19.90;99.90;;;;;;4086691;29;20059;-51
2023/07/28 00:24:09;;;;;;;4.25;2.30;;;19.90;99.90;;;;;;4076048;29;20119;-51
2023/07/28 00:26:11;;;;;;;4.85;2.30;;;19.90;99.90;;;;;;4070840;29;20377;-51
2023/07/28 00:28:15;;;;;;;3.17;2.10;;;19.90;99.90;;;;;;4071510;29;20139;-51
2023/07/28 00:30:17;;;;;;;3.60;2.25;;;19.90;99.90;;;;;;4060912;29;20376;-51
2023/07/28 00:32:19;;;;;;;3.50;2.30;;;19.90;99.90;;;;;;4070958;29;20059;-52
2023/07/28 00:34:21;;;;;;;2.55;1.80;;;19.90;99.90;;;;;;4078139;29;20055;-51
2023/07/28 00:36:23;;;;;;;2.47;1.75;;;19.90;99.90;;;;;;4073067;29;20052;-51
2023/07/28 00:38:26;;;;;;;6.95;2.17;;;19.90;99.90;;;;;;4071435;29;20127;-51
2023/07/28 00:40:28;;;;;;;5.32;2.10;;;19.90;99.90;;;;;;4080277;29;20068;-51
2023/07/28 00:42:30;;;;;;;3.78;2.00;;;19.90;99.90;;;;;;4070777;29;20052;-51
2023/07/28 00:44:33;;;;;;;2.40;1.90;;;19.80;99.90;;;;;;4077810;29;20052;-51
2023/07/28 00:46:36;;;;;;;3.05;1.77;;;19.90;99.90;;;;;;4086039;29;20547;-51
2023/07/28 00:48:39;;;;;;;4.22;1.80;;;19.90;99.90;;;;;;4084311;29;20410;-52
2023/07/28 00:50:42;;;;;;;3.15;1.75;;;19.90;99.90;;;;;;4081171;29;20523;-51
2023/07/28 00:52:46;;;;;;;2.08;1.55;;;19.80;99.90;;;;;;4070428;29;20055;-51
2023/07/28 00:54:48;;;;;;;3.42;1.90;;;19.90;99.90;;;;;;4077002;29;20518;-51
2023/07/28 00:56:51;;;;;;;3.75;2.30;;;19.90;99.90;;;;;;4074589;29;20055;-51
2023/07/28 00:58:53;;;;;;;6.07;1.95;;;19.90;99.90;;;;;;4071457;29;20056;-51
2023/07/28 01:00:56;;;;;;;2.65;1.80;;;19.80;99.90;;;;;;4081018;29;20066;-51
2023/07/28 01:02:58;;;;;;;5.05;1.83;;;19.80;99.90;;;;;;4070728;29;20071;-51
2023/07/28 01:05:01;;;;;;;3.53;2.10;;;19.90;99.90;;;;;;4076087;29;20048;-52
2023/07/28 01:07:09;;;;;;;3.30;1.80;;;19.90;99.90;;;;;;4075448;29;20412;-50
2023/07/28 01:09:16;;;;;;;2.55;1.83;;;19.90;99.90;;;;;;4054497;29;20045;-52
2023/07/28 01:11:18;;;;;;;4.07;2.10;;;19.90;99.90;;;;;;4080913;29;20507;-52
2023/07/28 01:13:20;;;;;;;5.30;1.80;;;19.90;99.90;;;;;;4070457;29;20052;-52
2023/07/28 01:15:22;;;;;;;5.50;2.00;;;19.90;99.90;;;;;;4076024;29;20050;-51
2023/07/28 01:17:25;;;;;;;3.95;1.80;;;19.90;99.90;;;;;;4075472;29;20079;-51
2023/07/28 01:19:28;;;;;;;3.23;1.97;;;19.90;99.90;;;;;;4070657;29;20221;-51
2023/07/28 01:21:31;;;;;;;3.33;2.10;;;19.80;99.90;;;;;;4080216;29;20060;-51
2023/07/28 01:23:41;;;;;;;2.88;2.08;;;19.80;99.90;;;;;;4071061;29;20075;-55
2023/07/28 01:25:49;;;;;;;6.20;2.05;;;19.90;99.90;;;;;;4074553;29;20064;-56
2023/07/28 01:27:59;;;;;;;4.47;2.20;;;19.90;99.90;;;;;;4081699;29;20050;-51
2023/07/28 01:30:07;;;;;;;3.55;2.00;;;19.80;99.90;;;;;;4084274;29;20078;-51
2023/07/28 01:32:10;;;;;;;4.72;1.95;;;19.80;99.90;;;;;;4058847;29;20127;-56
2023/07/28 01:34:12;;;;;;;4.95;2.05;;;19.80;99.90;;;;;;4086063;29;20138;-52
2023/07/28 01:36:15;;;;;;;4.13;2.30;;;19.80;99.90;;;;;;4077964;29;20048;-52
2023/07/28 01:38:17;;;;;;;2.22;1.80;;;19.80;99.90;;;;;;4080679;29;20056;-51
2023/07/28 01:40:24;;;;;;;3.65;2.05;;;19.80;99.90;;;;;;4084168;29;20055;-51
2023/07/28 01:42:30;;;;;;;4.63;1.90;;;19.80;99.90;;;;;;4074879;29;20043;-51
2023/07/28 01:44:34;;;;;;;5.28;2.33;;;19.80;99.90;;;;;;4085339;29;20047;-51
2023/07/28 01:46:36;;;;;;;4.13;2.20;;;19.80;99.90;;;;;;4077253;29;20044;-52
2023/07/28 01:48:38;;;;;;;4.20;2.22;;;19.80;99.90;;;;;;4081047;29;20067;-51
2023/07/28 01:50:40;;;;;;;4.03;2.15;;;19.80;99.90;;;;;;4083358;29;20418;-51
2023/07/28 01:52:47;;;;;;;4.45;2.15;;;19.80;99.90;;;;;;4074493;29;20040;-51
2023/07/28 01:54:54;;;;;;;3.97;2.03;;;19.80;99.90;;;;;;4085779;29;20055;-52
2023/07/28 01:56:56;;;;;;;7.32;2.10;;;19.80;99.90;;;;;;4077200;29;20056;-51
2023/07/28 01:58:58;;;;;;;3.80;1.88;;;19.80;99.90;;;;;;4080933;29;20048;-51
2023/07/28 02:01:02;;;;;;;5.40;2.25;;;19.80;99.90;;;;;;4083811;29;20059;-51
2023/07/28 02:03:04;;;;;;;4.05;2.00;;;19.80;99.90;;;;;;4074725;29;20047;-51
2023/07/28 02:05:07;;;;;;;3.75;1.80;;;19.80;99.90;;;;;;4085001;29;20051;-51
2023/07/28 02:07:09;;;;;;;4.07;2.20;;;19.80;99.90;;;;;;4078358;29;20044;-52
2023/07/28 02:09:11;;;;;;;4.95;2.22;;;19.80;99.90;;;;;;4079931;29;20051;-54
2023/07/28 02:11:13;;;;;;;3.00;1.90;;;19.80;99.90;;;;;;4084059;29;20052;-52
2023/07/28 02:13:15;;;;;;;3.83;1.85;;;19.80;99.90;;;;;;4067755;29;20546;-51
2023/07/28 02:15:17;;;;;;;8.85;1.60;;;19.80;99.90;;;;;;4084991;29;20315;-51
2023/07/28 02:17:20;;;;;;;4.22;1.70;;;19.80;99.90;;;;;;4079275;29;20071;-53
2023/07/28 02:19:22;;;;;;;6.88;2.45;;;19.80;99.90;;;;;;4078219;29;20150;-51
2023/07/28 02:21:24;;;;;;;3.03;1.90;;;19.80;99.90;;;;;;4084676;29;20055;-51
2023/07/28 02:23:26;;;;;;;4.07;1.95;;;19.80;99.90;;;;;;4079540;29;20059;-51
2023/07/28 02:25:28;;;;;;;3.65;1.90;;;19.80;99.90;;;;;;4069048;29;20086;-51
2023/07/28 02:27:31;;;;;;;2.47;1.55;;;19.80;99.90;;;;;;4072061;29;20043;-51
2023/07/28 02:29:33;;;;;;;3.10;1.75;;;19.80;99.90;;;;;;4077191;29;20083;-51
2023/07/28 02:31:35;;;;;;;2.08;1.77;;;19.80;99.90;;;;;;4085157;29;20043;-51
2023/07/28 02:33:38;;;;;;;4.57;2.00;;;19.80;99.90;;;;;;4073058;29;20048;-52
2023/07/28 02:35:40;;;;;;;2.35;1.70;;;19.80;99.90;;;;;;4084419;29;20048;-51
2023/07/28 02:37:42;;;;;;;3.58;1.80;;;19.90;99.90;;;;;;4081263;29;20437;-51
2023/07/28 02:39:44;;;;;;;2.45;1.40;;;19.80;99.90;;;;;;4075594;29;20082;-52
2023/07/28 02:41:46;;;;;;;2.28;1.50;;;19.80;99.90;;;;;;4084989;29;20078;-51
2023/07/28 02:43:48;;;;;;;3.05;1.58;;;19.80;99.90;;;;;;4074744;29;20452;-51
2023/07/28 02:45:54;;;;;;;2.70;1.63;;;19.80;99.90;;;;;;4082715;29;20444;-51
2023/07/28 02:47:56;;;;;;;3.92;1.40;;;19.90;99.90;;;;;;4081462;29;20048;-51
2023/07/28 02:50:00;;;;;;;3.38;1.63;;;19.90;99.90;;;;;;4074438;29;20102;-51
2023/07/28 02:52:03;;;;;;;2.28;1.30;;;19.90;99.90;;;;;;4084621;29;20054;-51
2023/07/28 02:54:06;;;;;;;2.25;1.45;;;19.90;99.90;;;;;;4074919;29;20048;-51
2023/07/28 02:56:08;;;;;;;3.50;1.45;;;19.90;99.90;;;;;;4082215;29;20094;-51
2023/07/28 02:58:10;;;;;;;2.50;1.70;;;19.90;99.90;;;;;;4082159;29;20054;-52
2023/07/28 03:00:14;;;;;;;2.10;1.30;;;19.90;99.90;;;;;;4073983;29;20082;-51
2023/07/28 03:02:16;;;;;;;4.07;1.83;;;19.90;99.90;;;;;;4084362;29;20110;-52
2023/07/28 03:04:19;;;;;;;4.55;1.77;;;19.90;99.90;;;;;;4076009;29;20048;-51
2023/07/28 03:06:23;;;;;;;1.55;1.30;;;19.90;99.90;;;;;;4081168;29;20142;-51
2023/07/28 03:08:25;;;;;;;2.90;1.88;;;19.90;99.90;;;;;;4082011;29;20051;-52
2023/07/28 03:10:27;;;;;;;2.75;1.30;;;19.90;99.90;;;;;;4056984;29;20424;-56
2023/07/28 03:12:29;;;;;;;2.72;1.55;;;19.90;99.90;;;;;;4084939;29;20060;-51
2023/07/28 03:14:31;;;;;;;2.90;1.40;;;19.90;99.90;;;;;;4078154;29;20048;-50
2023/07/28 03:16:34;;;;;;;1.73;1.30;;;19.90;99.90;;;;;;4081519;29;20466;-51
2023/07/28 03:18:36;;;;;;;2.42;1.30;;;19.80;99.90;;;;;;4083115;29;21021;-54
2023/07/28 03:20:38;;;;;;;4.38;1.40;;;19.90;99.90;;;;;;4074384;29;20048;-51
2023/07/28 03:22:41;;;;;;;1.77;1.10;;;19.90;99.90;;;;;;4084573;29;20075;-51
2023/07/28 03:24:46;;;;;;;3.22;1.23;;;19.90;99.90;;;;;;4075649;29;20075;-52
2023/07/28 03:26:48;;;;;;;2.25;1.33;;;19.90;99.90;;;;;;4062111;29;20059;-51
2023/07/28 03:28:50;;;;;;;4.30;1.25;;;19.90;99.90;;;;;;4083317;29;20075;-52
2023/07/28 03:30:52;;;;;;;2.03;1.55;;;19.90;99.90;;;;;;4079037;29;20170;-50
2023/07/28 03:32:54;;;;;;;2.70;1.60;;;19.90;99.90;;;;;;4068090;29;20078;-50
2023/07/28 03:34:56;;;;;;;3.67;1.60;;;19.90;99.90;;;;;;4071958;29;20438;-51
2023/07/28 03:36:58;;;;;;;2.55;1.38;;;19.90;99.90;;;;;;4074147;29;20430;-52
2023/07/28 03:39:02;;;;;;;2.13;1.25;;;19.90;99.90;;;;;;4068211;29;20048;-51
2023/07/28 03:41:04;;;;;;;2.58;1.77;;;19.90;99.90;;;;;;4077695;29;20054;-51
2023/07/28 03:43:06;;;;;;;2.08;1.25;;;19.90;99.90;;;;;;4068626;29;20131;-53
2023/07/28 03:45:09;;;;;;;1.42;1.30;;;19.90;99.90;;;;;;4071781;29;20048;-52
2023/07/28 03:47:11;;;;;;;3.15;1.67;;;19.90;99.90;;;;;;4075367;29;20047;-51
2023/07/28 03:49:13;;;;;;;2.47;1.30;;;19.90;99.90;;;;;;4083626;29;20479;-54
2023/07/28 03:51:15;;;;;;;3.67;1.30;;;19.90;99.90;;;;;;4072036;29;20055;-53
2023/07/28 03:53:18;;;;;;;3.47;1.42;;;19.90;99.90;;;;;;4083167;29;20043;-53
2023/07/28 03:55:21;;;;;;;2.80;1.20;;;19.90;99.90;;;;;;4080329;29;20071;-53
2023/07/28 03:57:23;;;;;;;2.45;1.48;;;19.90;99.90;;;;;;4050739;29;20393;-54
2023/07/28 03:59:25;;;;;;;2.75;1.60;;;19.90;99.90;;;;;;4068103;29;20058;-53
2023/07/28 04:01:27;;;;;;;2.95;1.17;;;19.90;99.90;;;;;;4068807;29;20050;-53
2023/07/28 04:03:29;;;;;;;1.30;1.20;;;19.90;99.90;;;;;;4082262;29;20044;-53
2023/07/28 04:05:31;;;;;;;5.47;1.77;;;19.90;99.90;;;;;;4081374;29;20051;-54
2023/07/28 04:07:33;;;;;;;1.95;1.40;;;19.90;99.90;;;;;;4073211;29;20051;-54
2023/07/28 04:09:35;;;;;;;3.42;1.50;;;19.90;99.90;;;;;;4083628;29;20491;-53
2023/07/28 04:11:39;;;;;;;2.45;1.30;;;19.90;99.90;;;;;;4074053;29;20103;-53
2023/07/28 04:13:41;;;;;;;2.72;1.42;;;19.90;99.90;;;;;;4079803;29;20471;-53
2023/07/28 04:15:43;;;;;;;3.22;1.40;;;19.90;99.90;;;;;;4081696;29;20095;-53
2023/07/28 04:17:45;;;;;;;3.10;1.20;;;19.80;99.90;;;;;;4072186;29;20102;-54
2023/07/28 04:19:48;;;;;;;2.30;1.25;;;19.80;99.90;;;;;;4083603;29;20054;-54
2023/07/28 04:21:50;;;;;;;5.38;1.35;;;19.80;99.90;;;;;;4075339;29;20504;-53
2023/07/28 04:23:52;;;;;;;2.85;1.40;;;19.80;99.90;;;;;;4079425;29;20463;-53
2023/07/28 04:25:54;;;;;;;2.67;1.50;;;19.80;99.90;;;;;;4067909;29;20059;-54
2023/07/28 04:27:58;;;;;;;1.90;1.27;;;19.70;99.90;;;;;;4045032;29;20128;-53
2023/07/28 04:30:00;;;;;;;2.20;1.20;;;19.70;99.90;;;;;;4067614;29;20614;-53
2023/07/28 04:32:02;;;;;;;4.05;1.27;;;19.70;99.90;;;;;;4074405;29;20079;-53
2023/07/28 04:34:04;;;;;;;2.03;1.30;;;19.70;99.90;;;;;;4072520;29;20087;-53
2023/07/28 04:36:06;;;;;;;4.15;1.50;;;19.80;99.90;;;;;;4068747;29;20072;-53
2023/07/28 04:38:08;;;;;;;1.63;1.20;;;19.70;99.90;;;;;;4077530;29;20047;-53
2023/07/28 04:40:12;;;;;;;4.13;1.30;;;19.80;99.90;;;;;;4067843;29;20059;-56
2023/07/28 04:42:18;;;;;;;2.13;1.45;;;19.80;99.90;;;;;;4071299;29;20123;-54
2023/07/28 04:44:21;;;;;;;2.03;1.27;;;19.70;99.90;;;;;;4072878;29;20048;-53
2023/07/28 04:46:23;;;;;;;2.40;1.30;;;19.70;99.90;;;;;;4068679;29;20048;-53
2023/07/28 04:48:26;;;;;;;1.60;1.20;;;19.70;99.90;;;;;;4068581;29;20540;-53
2023/07/28 04:50:28;;;;;;;1.63;1.15;;;19.70;99.90;;;;;;4083459;29;20070;-53
2023/07/28 04:52:31;;;;;;;2.35;1.10;;;19.70;99.90;;;;;;4079414;29;20079;-53
2023/07/28 04:54:33;;;;;;;4.55;1.45;;;19.70;99.90;;;;;;4074353;29;20396;-53
2023/07/28 04:56:35;;;;;;;1.95;1.00;;;19.70;99.90;;;;;;4067646;29;20052;-53
2023/07/28 04:58:37;;;;;;;1.85;0.82;;;19.70;99.90;;;;;;4076458;29;20069;-53
2023/07/28 05:00:41;;;;;;;1.38;1.05;;;19.70;99.90;;;;;;4067614;29;20095;-53
2023/07/28 05:02:43;;;;;;;1.25;0.85;;;19.70;99.90;;;;;;4071608;29;20044;-53
2023/07/28 05:04:45;;;;;;;2.58;0.80;;;19.70;99.90;;;;;;4075555;29;20048;-54
2023/07/28 05:06:47;;;;;;;1.73;1.00;;;19.60;99.90;;;;;;4070648;29;20056;-53
2023/07/28 05:08:49;;;;;;;1.75;0.90;;;19.70;99.90;;;;;;4081686;29;20048;-56
2023/07/28 05:10:51;;;;;;;2.08;0.90;;;19.70;99.90;;;;;;4072376;29;20071;-54
2023/07/28 05:12:53;;;;;;;1.40;0.80;;;19.70;99.90;;;;;;4073747;29;20127;-54
2023/07/28 05:14:55;;;;;;;1.80;1.00;;;19.80;99.90;;;;;;4080349;29;20457;-53
2023/07/28 05:16:59;;;;;;;3.47;0.88;;;19.80;99.90;;;;;;4071099;29;20052;-54
2023/07/28 05:19:01;;;;;;;1.25;0.73;;;19.80;99.90;;;;;;4080536;29;20056;-55
2023/07/28 05:21:03;;;;;;;1.30;1.00;;;19.70;99.90;;;;;;4072319;29;20054;-54
2023/07/28 05:23:05;;;;;;;1.30;0.80;;;19.80;99.90;;;;;;4071488;29;20048;-53
2023/07/28 05:25:08;;;;;;;1.17;0.85;;;19.70;99.90;;;;;;4058829;29;20127;-54
2023/07/28 05:27:11;;;;;;;1.83;0.63;;;19.70;99.90;;;;;;4069739;29;20096;-53
2023/07/28 05:29:13;;;;;;;0.95;0.55;;;19.70;99.90;;;;;;4077953;29;20047;-56
2023/07/28 05:31:15;;;;;;;1.35;0.80;;;19.70;99.90;;;;;;4072921;29;20084;-59
2023/07/28 05:33:18;;;;;;;2.03;0.70;;;19.80;99.90;;;;;;4073030;29;20125;-53
2023/07/28 05:35:21;;;;;;;2.10;1.00;;;19.80;99.90;;;;;;4070294;29;20052;-53
2023/07/28 05:37:23;;;;;;;2.63;0.70;;;19.80;99.90;;;;;;4069798;29;20052;-54
2023/07/28 05:39:25;;;;;;;0.60;0.60;;;19.80;99.90;;;;;;4077414;29;20047;-54
2023/07/28 05:41:28;;;;;;;1.85;1.10;;;19.80;99.90;;;;;;4073894;29;20528;-53
2023/07/28 05:43:30;;;;;;;1.33;0.70;;;19.80;99.90;;;;;;4070694;29;20044;-52
2023/07/28 05:45:32;;;;;;;1.67;0.70;;;19.90;99.90;;;;;;4080465;29;20048;-53
2023/07/28 05:47:34;;;;;;;3.75;0.73;;;19.90;99.90;;;;;;4052639;29;20447;-54
2023/07/28 05:49:37;;;;;;;1.48;0.80;;;19.90;99.90;;;;;;4076313;29;20052;-53
2023/07/28 05:51:39;;;;;;;1.13;0.65;;;19.80;99.90;;;;;;4074409;29;20488;-53
2023/07/28 05:53:41;;;;;;;1.13;0.70;;;19.90;99.90;;;;;;4070767;29;20051;-53
2023/07/28 05:55:43;;;;;;;1.05;0.55;;;19.90;99.90;;;;;;4080248;29;20052;-52
2023/07/28 05:57:46;;;;;;;0.60;0.60;;;19.90;99.90;;;;;;4068712;29;20685;-53
2023/07/28 05:59:48;;;;;;;2.70;0.90;;;19.90;99.90;;;;;;4075045;29;20044;-54
2023/07/28 06:01:51;;;;;;;2.72;0.60;;;19.90;99.90;;;;;;4075835;29;20052;-53
2023/07/28 06:03:55;;;;;;;0.60;0.60;;;19.90;99.90;;;;;;4069825;29;20059;-53
2023/07/28 06:05:59;;;;;;;;;;;19.90;99.90;;;;;;4074994;29;20104;-53
2023/07/28 06:08:01;;;;;;;1.10;0.68;;;19.80;99.90;;;;;;4084827;29;20448;-53
2023/07/28 06:10:04;;;;;;;1.30;0.93;;;19.80;99.90;;;;;;4081428;29;20071;-53
2023/07/28 06:12:07;;;;;;;2.92;0.60;;;19.90;99.90;;;;;;4075906;29;20127;-54
2023/07/28 06:14:09;;;;;;;1.92;0.70;;;19.90;99.90;;;;;;4052537;29;20044;-54
2023/07/28 06:16:11;;;;;;;1.13;0.70;;;19.90;99.90;;;;;;4073103;29;20460;-54
2023/07/28 06:18:14;;;;;;;1.85;0.70;;;20.00;99.90;;;;;;4084523;29;20095;-54
2023/07/28 06:20:16;;;;;;;2.35;0.68;;;20.00;99.90;;;;;;4080870;29;20043;-53
2023/07/28 06:22:20;;;;;;;1.73;0.98;;;20.00;99.90;;;;;;4077019;29;20051;-53
2023/07/28 06:24:22;;;;;;;3.13;0.60;;;20.10;99.90;;;;;;4080622;29;20048;-53
2023/07/28 06:26:24;;;;;;;4.70;0.88;;;20.10;99.90;;;;;;4080287;29;20056;-53
2023/07/28 06:28:26;;;;;;;2.47;0.93;;;20.10;99.90;;;;;;4068670;29;20086;-53
2023/07/28 06:30:28;;;;;;;2.63;0.60;;;20.10;99.90;;;;;;4072074;29;20480;-54
2023/07/28 06:32:30;;;;;;;2.58;0.70;;;20.10;99.90;;;;;;4078386;29;20070;-53
2023/07/28 06:34:33;;;;;;;7.57;0.73;;;20.10;99.90;;;;;;4069501;29;20478;-53
2023/07/28 06:36:35;;;;;;;4.90;1.38;;;20.10;99.90;;;;;;4079197;29;20408;-53
2023/07/28 06:38:39;;;;;;;6.60;0.90;;;20.10;99.90;;;;;;4070433;29;20055;-53
2023/07/28 06:40:41;;;;;;;3.10;0.95;;;20.10;99.90;;;;;;4070567;29;20091;-53
2023/07/28 06:42:43;;;;;;;4.95;1.00;;;20.10;99.90;;;;;;4085095;29;20048;-53
2023/07/28 06:44:45;;;;;;;3.72;0.95;;;20.10;99.90;;;;;;4084771;29;20047;-53
2023/07/28 06:46:47;;;;;;;2.70;1.10;;;20.10;99.90;;;;;;4075351;29;20489;-53
2023/07/28 06:48:49;;;;;;;2.78;1.10;;;20.10;99.90;;;;;;4081373;29;20054;-53
2023/07/28 06:50:51;;;;;;;6.05;1.02;;;20.10;99.90;;;;;;4066365;29;20568;-53
2023/07/28 06:52:54;;;;;;;5.90;1.05;;;20.10;99.90;;;;;;4074026;29;20103;-53
2023/07/28 06:54:57;;;;;;;2.97;0.90;;;20.10;99.90;;;;;;4084364;29;20051;-54
2023/07/28 06:56:59;;;;;;;2.88;0.80;;;20.10;99.90;;;;;;4076564;29;20086;-53
2023/07/28 06:59:01;;;;;;;2.30;1.05;;;20.10;99.90;;;;;;4080113;29;20058;-53
2023/07/28 07:01:17;;;;;;;12.63;1.07;;;20.10;99.90;;;;;;4083327;29;20043;-54
2023/07/28 07:03:20;;;;;;;4.05;1.08;;;20.10;99.90;;;;;;4063863;29;20043;-52
2023/07/28 07:05:23;;;;;;;11.80;1.33;;;20.20;99.90;;;;;;4087085;29;20063;-53
2023/07/28 07:07:25;;;;;;;7.40;1.27;;;20.20;99.90;;;;;;4078396;29;20170;-59
2023/07/28 07:09:31;;;;;;;9.27;1.15;;;20.20;99.90;;;;;;4082339;29;20084;-59
2023/07/28 07:11:35;;;;;;;1.23;0.90;;;20.30;99.90;;;;;;4086054;29;20427;-54
2023/07/28 07:13:38;;;;;;;3.15;1.08;;;20.30;99.90;;;;;;4076527;29;20129;-54
2023/07/28 07:15:42;;;;;;;4.20;1.00;;;20.40;99.90;;;;;;4068898;29;20079;-54
2023/07/28 07:17:44;;;;;;;7.93;1.13;;;20.40;99.90;;;;;;4075353;29;20080;-54
2023/07/28 07:19:46;;;;;;;3.33;0.80;;;20.30;99.90;;;;;;4080694;29;20052;-54
2023/07/28 07:21:49;;;;;;;1.85;0.90;;;20.30;99.90;;;;;;4082798;29;20139;-55
2023/07/28 07:23:51;;;;;;;2.38;1.00;;;20.30;99.90;;;;;;4072813;29;20119;-54
2023/07/28 07:25:53;;;;;;;3.60;0.98;;;20.30;99.90;;;;;;4068438;29;20052;-54
2023/07/28 07:27:56;;;;;;;3.15;1.17;;;20.20;99.90;;;;;;4074176;29;20047;-52
2023/07/28 07:29:59;;;;;;;5.00;1.10;;;20.30;99.90;;;;;;4072267;29;20120;-59
2023/07/28 07:32:01;;;;;;;5.35;1.15;;;20.30;99.90;;;;;;4069522;29;20797;-51
2023/07/28 07:34:04;;;;;;;3.55;1.30;;;20.20;99.90;;;;;;4078964;29;20407;-51
2023/07/28 07:36:11;;;;;;;2.38;1.10;;;20.20;99.90;;;;;;4068432;29;20047;-51
2023/07/28 07:38:13;;;;;;;4.68;1.42;;;20.10;99.90;;;;;;4074048;29;20055;-54
2023/07/28 07:40:15;;;;;;;11.05;2.25;;;20.10;99.90;;;;;;4072946;29;20044;-54
2023/07/28 07:42:17;;;;;;;7.40;1.63;;;20.10;99.90;;;;;;4069384;29;20048;-54
2023/07/28 07:44:20;;;;;;;7.85;1.67;;;20.10;99.90;;;;;;4078825;29;20075;-51
2023/07/28 07:46:23;;;;;;;5.68;1.48;;;20.00;99.90;;;;;;4068303;29;20048;-51
2023/07/28 07:48:25;;;;;;;7.68;1.80;;;20.00;99.90;;;;;;4072762;29;20075;-54
2023/07/28 07:50:28;;;;;;;8.10;2.28;;;20.00;99.90;;;;;;4073996;29;20055;-54
2023/07/28 07:52:30;;;;;;;2.72;1.10;;;20.00;99.90;;;;;;4068548;29;20074;-53
2023/07/28 07:54:32;;;;;;;6.80;1.17;;;20.00;99.90;;;;;;4079257;29;20094;-52
2023/07/28 07:56:34;;;;;;;5.38;1.00;;;20.10;99.90;;;;;;4068800;29;20048;-51
2023/07/28 07:58:36;;;;;;;2.80;1.00;;;20.10;99.90;;;;;;4071426;29;20040;-54
2023/07/28 08:00:40;;;;;;;4.75;1.50;;;20.10;99.90;;;;;;4083642;29;20114;-54
2023/07/28 08:02:42;;;;;;;3.42;1.00;;;20.10;99.90;;;;;;4083721;29;20052;-52
2023/07/28 08:04:47;;;;;;;7.63;1.58;;;20.10;99.90;;;;;;4071074;29;20051;-52
2023/07/28 08:06:50;;;;;;;5.20;1.00;;;20.20;99.90;;;;;;4083560;29;20519;-59
2023/07/28 08:08:55;;;;;;;10.65;1.35;;;20.20;99.90;;;;;;4079080;29;20055;-52
2023/07/28 08:10:57;;;;;;;3.50;1.17;;;20.20;99.90;;;;;;4076821;29;20051;-51
2023/07/28 08:12:59;;;;;;;2.75;1.27;;;20.30;99.90;;;;;;4084003;29;20047;-52
2023/07/28 08:15:02;;;;;;;5.57;1.10;;;20.30;99.90;;;;;;4073424;29;20055;-52
2023/07/28 08:17:05;;;;;;;3.40;1.05;;;20.30;99.90;;;;;;4085991;29;20082;-52
2023/07/28 08:19:07;;;;;;;2.83;1.08;;;20.30;99.90;;;;;;4080526;29;20122;-52
2023/07/28 08:21:10;;;;;;;2.75;1.15;;;20.30;99.90;;;;;;4075425;29;20043;-52
2023/07/28 08:23:12;;;;;;;2.47;0.98;;;20.30;99.90;;;;;;4084545;29;20107;-53
2023/07/28 08:25:14;;;;;;;3.83;1.20;;;20.40;99.90;;;;;;4079913;29;20091;-52
2023/07/28 08:27:16;;;;;;;5.65;1.27;;;20.40;99.90;;;;;;4069331;29;20139;-52
2023/07/28 08:29:19;;;;;;;2.75;1.20;;;20.50;99.90;;;;;;4069589;29;20055;-52
2023/07/28 08:31:21;;;;;;;3.65;1.33;;;20.50;99.90;;;;;;4083829;29;20047;-52
2023/07/28 08:33:25;;;;;;;3.25;1.38;;;20.60;99.90;;;;;;4083564;29;20135;-53
2023/07/28 08:35:27;;;;;;;3.50;1.27;;;20.70;99.90;;;;;;4073917;29;20047;-52
2023/07/28 08:37:29;;;;;;;2.67;1.02;;;20.70;99.90;;;;;;4080908;29;20048;-53
2023/07/28 08:39:32;;;;;;;5.10;1.08;;;20.70;99.90;;;;;;4081622;29;20074;-52
2023/07/28 08:41:35;;;;;;;4.55;1.63;;;20.70;99.90;;;;;;4075599;29;20039;-52
2023/07/28 08:43:37;;;;;;;4.47;1.30;;;20.80;99.90;;;;;;4086563;29;20052;-52
2023/07/28 08:45:43;;;;;;;6.45;1.10;;;20.70;99.90;;;;;;4077433;29;20052;-51
2023/07/28 08:47:45;;;;;;;4.80;1.00;;;20.70;99.90;;;;;;4083582;29;20048;-51
2023/07/28 08:49:49;;;;;;;2.67;1.10;;;20.70;99.90;;;;;;4084565;29;20160;-52
2023/07/28 08:51:57;;;;;;;1.65;0.68;;;20.70;99.90;;;;;;4059413;29;20048;-52
2023/07/28 08:53:59;;;;;;;3.70;1.20;;;20.80;99.90;;;;;;4069829;29;20140;-52
2023/07/28 08:56:01;;;;;;;6.90;1.50;;;20.80;99.90;;;;;;4078043;29;20139;-52
2023/07/28 08:58:18;;;;;;;4.78;1.40;;;20.90;99.90;;;;;;4083299;29;20055;-51
2023/07/28 09:00:23;;;;;;;5.53;1.48;;;21.10;99.90;;;;;;4084042;29;20075;-53
2023/07/28 09:02:25;;;;;;;6.28;1.77;;;21.20;99.90;;;;;;4076700;29;20471;-55
2023/07/28 09:04:28;;;;;;;11.27;1.73;;;21.20;99.90;;;;;;4086604;29;20055;-55
2023/07/28 09:06:31;;;;;;;7.05;1.80;;;21.30;99.90;;;;;;4076086;29;20416;-55
2023/07/28 09:08:35;;;;;;;6.72;1.30;;;21.40;99.90;;;;;;4083377;29;20058;-52
2023/07/28 09:10:42;;;;;;;5.47;1.25;;;21.40;99.90;;;;;;4067568;29;20048;-52
2023/07/28 09:12:48;;;;;;;3.42;0.90;;;21.50;99.90;;;;;;4066620;29;20079;-54
2023/07/28 09:14:56;;;;;;;2.25;1.00;;;21.50;99.90;;;;;;4086142;29;20067;-54
2023/07/28 09:17:07;;;;;;;2.30;1.00;;;21.50;99.90;;;;;;4075337;29;20048;-54
2023/07/28 09:19:09;;;;;;;3.78;1.00;;;21.50;99.90;;;;;;4084610;29;20075;-53
2023/07/28 09:21:17;;;;;;;1.70;1.10;;;21.50;99.90;;;;;;4082857;29;20488;-52
2023/07/28 09:23:28;;;;;;;1.75;1.00;;;21.40;99.90;;;;;;4077949;29;20043;-52
2023/07/28 09:25:31;;;;;;;2.97;1.05;;;21.30;99.90;;;;;;4072478;29;20048;-53
2023/07/28 09:27:33;;;;;;;2.72;1.10;;;21.30;99.90;;;;;;4080545;29;20056;-54
2023/07/28 09:29:35;;;;;;;5.10;1.52;;;21.30;99.90;;;;;;4069412;29;20044;-54
2023/07/28 09:31:38;;;;;;;3.47;1.52;;;21.40;99.90;;;;;;4073479;29;20044;-53
2023/07/28 09:33:46;;;;;;;4.38;1.52;;;21.40;99.90;;;;;;4077482;29;20151;-54
2023/07/28 09:35:49;;;;;;;2.92;1.30;;;21.40;99.90;;;;;;4069935;29;20063;-54
2023/07/28 09:37:54;;;;;;;2.78;1.20;;;21.30;99.90;;;;;;4072954;29;20076;-54
2023/07/28 09:39:58;;;;;;;4.00;0.80;;;21.30;99.90;;;;;;4085147;29;20048;-54
2023/07/28 09:42:01;;;;;;;4.13;1.25;;;21.30;99.90;;;;;;4081257;29;20131;-53
2023/07/28 09:44:04;;;;;;;3.90;1.10;;;21.20;99.90;;;;;;4078043;29;20475;-53
2023/07/28 09:46:08;;;;;;;4.35;1.30;;;21.30;99.90;;;;;;4085725;29;20055;-54
2023/07/28 09:48:13;;;;;;;5.10;2.28;;;21.30;99.90;;;;;;4072715;29;20055;-55
2023/07/28 09:50:16;;;;;;;;;;;21.30;99.90;;;;;;4054850;29;20056;-54
2023/07/28 09:52:19;;;;;;;5.78;3.03;;;21.40;99.90;;;;;;4064621;29;19954;-54
2023/07/28 09:54:27;;;;;;;5.22;2.95;;;21.40;99.90;;;;;;4077623;29;20040;-54
2023/07/28 09:56:31;;;;;;;3.88;2.33;;;21.50;99.90;;;;;;4068613;29;20087;-55
2023/07/28 09:58:37;;;;;;;5.80;4.20;;;21.70;99.90;;;;;;4066472;29;20056;-55
2023/07/28 10:00:41;;;;;;;5.68;3.92;;;21.70;99.90;;;;;;4066772;29;20040;-54
2023/07/28 10:02:43;;;;;;;4.88;2.00;;;21.70;99.90;;;;;;4062127;29;20103;-54
2023/07/28 10:04:46;;;;;;;3.63;2.85;;;21.80;99.90;;;;;;4060652;29;20191;-54
2023/07/28 10:06:49;;;;;;;7.30;4.45;;;21.80;99.90;;;;;;4066531;29;20495;-54
2023/07/28 10:08:51;;;;;;;4.82;3.17;;;21.90;99.90;;;;;;4062634;29;20071;-55
2023/07/28 10:10:54;;;;;;;5.97;3.28;;;21.90;99.90;;;;;;4060522;29;20052;-52
2023/07/28 10:12:59;;;;;;;4.85;1.98;;;22.00;99.90;;;;;;4065171;29;20488;-51
2023/07/28 10:15:02;;;;;;;6.78;2.53;;;22.00;99.90;;;;;;4060419;29;20540;-51
2023/07/28 10:17:05;;;;;;;3.63;1.67;;;22.00;99.90;;;;;;4059985;29;20048;-51
2023/07/28 10:19:09;;;;;;;4.10;2.58;;;22.00;99.90;;;;;;4061454;29;20090;-51
2023/07/28 10:21:16;;;;;;;2.95;1.98;;;22.00;99.90;;;;;;4062277;29;20490;-51
2023/07/28 10:23:24;;;;;;;3.45;1.70;;;22.20;99.90;;;;;;4064307;29;20099;-51
2023/07/28 10:25:26;;;;;;;3.55;1.10;;;22.40;99.90;;;;;;4060499;29;20609;-50
2023/07/28 10:27:34;;;;;;;2.22;1.33;;;22.60;99.90;;;;;;4060049;29;20145;-53
2023/07/28 10:29:39;;;;;;;1.80;1.30;;;22.80;99.90;;;;;;4059282;29;20514;-50
2023/07/28 10:31:59;;;;;;;2.33;1.30;;;23.00;99.90;;;;;;4065837;29;20117;-51
2023/07/28 10:34:01;;;;;;;5.07;1.50;;;23.10;99.90;;;;;;4064777;29;20142;-52
2023/07/28 10:36:13;;;;;;;2.10;1.40;;;23.30;99.90;;;;;;4060354;29;20056;-53
2023/07/28 10:38:33;;;;;;;5.68;1.23;;;23.40;99.90;;;;;;4062114;29;20044;-54
2023/07/28 10:40:36;;;;;;;4.93;1.08;;;23.50;99.90;;;;;;4060932;29;20066;-50
2023/07/28 10:42:38;;;;;;;2.58;1.00;;;23.50;99.90;;;;;;4059733;29;20082;-52